sensor_id;sensor_type;location;lat;lon;timestamp;pressure;altitude;pressure_sealevel;temperature;humidity
5283;BME280;15376;48.540;9.268;2023-05-08T00:00:34;97785.97;;;13.75;100.00
5283;BME280;15376;48.540;9.268;2023-05-08T00:02:59;97787.63;;;13.76;100.00
5283;BME280;15376;48.540;9.268;2023-05-08T00:05:24;97785.97;;;13.75;100.00
5283;BME280;15376;48.540;9.268;2023-05-08T00:07:50;97745.78;;;13.48;100.00
5283;BME280;15376;48.540;9.268;2023-05-08T00:10:16;97781.41;;;13.68;100.00
5283;BME280;15376;48.540;9.268;2023-05-08T00:12:41;97779.00;;;13.74;100.00
5283;BME280;15376;48.540;9.268;2023-05-08T00:15:07;97783.31;;;13.75;100.00
5283;BME280;15376;48.540;9.268;2023-05-08T00:17:33;97794.63;;;13.77;100.00
5283;BME280;15376;48.540;9.268;2023-05-08T00:19:59;97784.91;;;13.69;100.00
5283;BME280;15376;48.540;9.268;2023-05-08T00:22:24;97771.13;;;13.65;100.00
5283;BME280;15376;48.540;9.268;2023-05-08T00:24:49;97785.34;;;13.73;100.00
5283;BME280;15376;48.540;9.268;2023-05-08T00:27:15;97794.19;;;13.73;100.00
5283;BME280;15376;48.540;9.268;2023-05-08T00:29:40;97804.28;;;13.78;100.00
5283;BME280;15376;48.540;9.268;2023-05-08T00:32:06;97787.63;;;13.76;100.00
5283;BME280;15376;48.540;9.268;2023-05-08T00:34:32;97790.69;;;13.73;100.00
5283;BME280;15376;48.540;9.268;2023-05-08T00:36:57;97788.41;;;13.69;100.00
5283;BME280;15376;48.540;9.268;2023-05-08T00:39:23;97798.25;;;13.69;100.00
5283;BME280;15376;48.540;9.268;2023-05-08T00:41:48;97790.84;;;13.64;100.00
5283;BME280;15376;48.540;9.268;2023-05-08T00:44:14;97792.66;;;13.57;100.00
5283;BME280;15376;48.540;9.268;2023-05-08T00:46:42;97801.75;;;13.69;100.00
5283;BME280;15376;48.540;9.268;2023-05-08T00:49:08;97788.16;;;13.64;100.00
5283;BME280;15376;48.540;9.268;2023-05-08T00:51:37;97817.34;;;13.66;100.00
5283;BME280;15376;48.540;9.268;2023-05-08T00:54:03;97807.88;;;13.63;100.00
5283;BME280;15376;48.540;9.268;2023-05-08T00:56:30;97809.53;;;13.64;100.00
5283;BME280;15376;48.540;9.268;2023-05-08T00:58:56;97804.56;;;13.61;100.00
5283;BME280;15376;48.540;9.268;2023-05-08T01:01:22;97798.00;;;13.57;100.00
5283;BME280;15376;48.540;9.268;2023-05-08T01:03:48;97792.41;;;13.52;100.00
5283;BME280;15376;48.540;9.268;2023-05-08T01:06:14;97799.22;;;13.61;100.00
5283;BME280;15376;48.540;9.268;2023-05-08T01:08:42;97815.47;;;13.66;100.00
5283;BME280;15376;48.540;9.268;2023-05-08T01:11:18;97802.06;;;13.53;100.00
5283;BME280;15376;48.540;9.268;2023-05-08T01:33:12;97822.22;;;13.56;100.00
5283;BME280;15376;48.540;9.268;2023-05-08T01:35:51;97824.50;;;13.59;100.00
5283;BME280;15376;48.540;9.268;2023-05-08T01:38:28;97805.94;;;13.51;100.00
5283;BME280;15376;48.540;9.268;2023-05-08T01:41:15;97822.22;;;13.56;100.00
5283;BME280;15376;48.540;9.268;2023-05-08T01:46:21;97826.72;;;13.55;100.00
5283;BME280;15376;48.540;9.268;2023-05-08T01:49:12;97825.69;;;13.56;100.00
5283;BME280;15376;48.540;9.268;2023-05-08T01:51:52;97832.69;;;13.57;100.00
5283;BME280;15376;48.540;9.268;2023-05-08T01:54:24;97830.41;;;13.54;100.00
5283;BME280;15376;48.540;9.268;2023-05-08T01:56:53;97833.91;;;13.55;100.00
5283;BME280;15376;48.540;9.268;2023-05-08T01:59:21;97835.28;;;13.51;100.00
5283;BME280;15376;48.540;9.268;2023-05-08T02:01:48;97837.59;;;13.54;100.00
5283;BME280;15376;48.540;9.268;2023-05-08T02:04:15;97838.97;;;13.50;100.00
5283;BME280;15376;48.540;9.268;2023-05-08T02:06:41;97830.72;;;13.45;100.00
5283;BME280;15376;48.540;9.268;2023-05-08T02:09:08;97833.19;;;13.46;100.00
5283;BME280;15376;48.540;9.268;2023-05-08T02:11:36;97831.94;;;13.42;100.00
5283;BME280;15376;48.540;9.268;2023-05-08T02:14:02;97832.38;;;13.46;100.00
5283;BME280;15376;48.540;9.268;2023-05-08T02:16:29;97832.56;;;13.44;100.00
5283;BME280;15376;48.540;9.268;2023-05-08T02:18:57;97835.88;;;13.46;100.00
5283;BME280;15376;48.540;9.268;2023-05-08T02:21:25;97844.69;;;13.47;100.00
5283;BME280;15376;48.540;9.268;2023-05-08T02:23:53;97831.56;;;13.45;100.00
5283;BME280;15376;48.540;9.268;2023-05-08T02:26:21;97825.84;;;13.48;100.00
5283;BME280;15376;48.540;9.268;2023-05-08T02:28:48;97836.75;;;13.53;100.00
5283;BME280;15376;48.540;9.268;2023-05-08T02:31:15;97844.75;;;13.53;100.00
5283;BME280;15376;48.540;9.268;2023-05-08T02:33:42;97847.63;;;13.52;100.00
5283;BME280;15376;48.540;9.268;2023-05-08T02:36:12;97828.25;;;13.43;100.00
5283;BME280;15376;48.540;9.268;2023-05-08T02:38:41;97820.38;;;13.35;100.00
5283;BME280;15376;48.540;9.268;2023-05-08T02:41:09;97836.50;;;13.48;100.00
5283;BME280;15376;48.540;9.268;2023-05-08T02:43:36;97834.84;;;13.47;100.00
5283;BME280;15376;48.540;9.268;2023-05-08T02:46:07;97838.34;;;13.48;100.00
5283;BME280;15376;48.540;9.268;2023-05-08T02:48:46;97836.06;;;13.45;100.00
5283;BME280;15376;48.540;9.268;2023-05-08T02:51:22;97820.00;;;13.38;100.00
5283;BME280;15376;48.540;9.268;2023-05-08T02:59:21;97829.41;;;13.34;100.00
5283;BME280;15376;48.540;9.268;2023-05-08T03:01:52;97822.16;;;13.28;100.00
5283;BME280;15376;48.540;9.268;2023-05-08T03:04:23;97818.66;;;13.27;100.00
5283;BME280;15376;48.540;9.268;2023-05-08T03:06:51;97838.16;;;13.28;100.00
5283;BME280;15376;48.540;9.268;2023-05-08T03:09:19;97826.84;;;13.26;100.00
5283;BME280;15376;48.540;9.268;2023-05-08T03:11:48;97814.91;;;13.22;100.00
5283;BME280;15376;48.540;9.268;2023-05-08T03:14:17;97831.16;;;13.27;100.00
5283;BME280;15376;48.540;9.268;2023-05-08T03:16:44;97823.38;;;13.25;100.00
5283;BME280;15376;48.540;9.268;2023-05-08T03:19:21;97827.22;;;13.23;100.00
5283;BME280;15376;48.540;9.268;2023-05-08T03:21:50;97831.34;;;13.25;100.00
5283;BME280;15376;48.540;9.268;2023-05-08T03:24:18;97825.59;;;13.22;100.00
5283;BME280;15376;48.540;9.268;2023-05-08T03:26:46;97830.53;;;13.25;100.00
5283;BME280;15376;48.540;9.268;2023-05-08T03:29:12;97829.34;;;13.27;100.00
5283;BME280;15376;48.540;9.268;2023-05-08T03:31:39;97826.47;;;13.29;100.00
5283;BME280;15376;48.540;9.268;2023-05-08T03:34:05;97820.69;;;13.25;100.00
5283;BME280;15376;48.540;9.268;2023-05-08T03:36:33;97823.22;;;13.33;100.00
5283;BME280;15376;48.540;9.268;2023-05-08T03:38:59;97810.66;;;13.27;100.00
5283;BME280;15376;48.540;9.268;2023-05-08T03:41:24;97824.50;;;13.38;100.00
5283;BME280;15376;48.540;9.268;2023-05-08T03:43:50;97830.66;;;13.38;100.00
5283;BME280;15376;48.540;9.268;2023-05-08T03:46:16;97823.22;;;13.33;100.00
5283;BME280;15376;48.540;9.268;2023-05-08T03:48:43;97843.19;;;13.38;100.00
5283;BME280;15376;48.540;9.268;2023-05-08T03:51:10;97829.41;;;13.34;100.00
5283;BME280;15376;48.540;9.268;2023-05-08T03:53:36;97842.16;;;13.39;100.00
5283;BME280;15376;48.540;9.268;2023-05-08T03:56:01;97842.16;;;13.39;100.00
5283;BME280;15376;48.540;9.268;2023-05-08T03:58:40;97842.16;;;13.39;100.00
5283;BME280;15376;48.540;9.268;2023-05-08T04:07:14;97833.16;;;13.40;100.00
5283;BME280;15376;48.540;9.268;2023-05-08T04:09:58;97836.81;;;13.39;100.00
5283;BME280;15376;48.540;9.268;2023-05-08T04:15:31;97843.03;;;13.46;100.00
5283;BME280;15376;48.540;9.268;2023-05-08T04:18:04;97837.91;;;13.44;100.00
5283;BME280;15376;48.540;9.268;2023-05-08T04:20:31;97846.91;;;13.43;100.00
5283;BME280;15376;48.540;9.268;2023-05-08T04:22:58;97866.94;;;13.54;100.00
5283;BME280;15376;48.540;9.268;2023-05-08T04:25:24;97862.88;;;13.58;100.00
5283;BME280;15376;48.540;9.268;2023-05-08T04:27:50;97849.84;;;13.48;100.00
5283;BME280;15376;48.540;9.268;2023-05-08T04:30:17;97869.03;;;13.58;100.00
5283;BME280;15376;48.540;9.268;2023-05-08T04:32:43;97867.78;;;13.61;100.00
5283;BME280;15376;48.540;9.268;2023-05-08T04:35:09;97878.09;;;13.64;100.00
5283;BME280;15376;48.540;9.268;2023-05-08T04:37:35;97880.19;;;13.68;100.00
5283;BME280;15376;48.540;9.268;2023-05-08T04:40:01;97873.19;;;13.67;100.00
5283;BME280;15376;48.540;9.268;2023-05-08T04:42:27;97877.69;;;13.67;100.00
5283;BME280;15376;48.540;9.268;2023-05-08T04:44:53;97878.13;;;13.71;100.00
5283;BME280;15376;48.540;9.268;2023-05-08T04:47:19;97860.59;;;13.61;100.00
5283;BME280;15376;48.540;9.268;2023-05-08T04:49:51;97871.78;;;13.72;100.00
5283;BME280;15376;48.540;9.268;2023-05-08T04:52:16;97879.84;;;13.78;100.00
5283;BME280;15376;48.540;9.268;2023-05-08T04:54:42;97870.81;;;13.79;100.00
5283;BME280;15376;48.540;9.268;2023-05-08T04:57:07;97885.25;;;13.85;100.00
5283;BME280;15376;48.540;9.268;2023-05-08T04:59:32;97876.41;;;13.84;100.00
5283;BME280;15376;48.540;9.268;2023-05-08T05:01:58;97882.81;;;13.90;100.00
5283;BME280;15376;48.540;9.268;2023-05-08T05:04:26;97866.81;;;13.90;100.00
5283;BME280;15376;48.540;9.268;2023-05-08T05:06:52;97835.25;;;13.72;100.00
5283;BME280;15376;48.540;9.268;2023-05-08T05:09:17;97876.91;;;14.01;100.00
5283;BME280;15376;48.540;9.268;2023-05-08T05:11:43;97881.28;;;14.09;100.00
5283;BME280;15376;48.540;9.268;2023-05-08T05:14:08;97888.72;;;14.13;100.00
5283;BME280;15376;48.540;9.268;2023-05-08T05:16:33;97893.03;;;14.14;100.00
5283;BME280;15376;48.540;9.268;2023-05-08T05:18:59;97873.88;;;14.04;100.00
5283;BME280;15376;48.540;9.268;2023-05-08T05:21:24;97875.06;;;14.01;100.00
5283;BME280;15376;48.540;9.268;2023-05-08T05:23:50;97886.63;;;14.09;100.00
5283;BME280;15376;48.540;9.268;2023-05-08T05:26:15;97876.19;;;14.14;100.00
5283;BME280;15376;48.540;9.268;2023-05-08T05:28:41;97880.75;;;14.20;100.00
5283;BME280;15376;48.540;9.268;2023-05-08T05:31:06;97863.09;;;14.19;100.00
5283;BME280;15376;48.540;9.268;2023-05-08T05:33:32;97864.78;;;14.26;100.00
5283;BME280;15376;48.540;9.268;2023-05-08T05:35:57;97872.78;;;14.26;100.00
5283;BME280;15376;48.540;9.268;2023-05-08T05:38:23;97885.19;;;14.41;100.00
5283;BME280;15376;48.540;9.268;2023-05-08T05:40:49;97878.59;;;14.37;100.00
5283;BME280;15376;48.540;9.268;2023-05-08T05:43:14;97878.59;;;14.37;100.00
5283;BME280;15376;48.540;9.268;2023-05-08T05:45:39;97878.38;;;14.31;100.00
5283;BME280;15376;48.540;9.268;2023-05-08T05:48:05;97882.50;;;14.41;100.00
5283;BME280;15376;48.540;9.268;2023-05-08T05:50:30;97876.00;;;14.50;100.00
5283;BME280;15376;48.540;9.268;2023-05-08T05:52:56;97875.84;;;14.58;100.00
5283;BME280;15376;48.540;9.268;2023-05-08T05:55:21;97878.78;;;14.70;100.00
5283;BME280;15376;48.540;9.268;2023-05-08T05:57:47;97880.03;;;14.74;100.00
5283;BME280;15376;48.540;9.268;2023-05-08T06:00:13;97865.59;;;14.61;100.00
5283;BME280;15376;48.540;9.268;2023-05-08T06:02:39;97864.38;;;14.64;100.00
5283;BME280;15376;48.540;9.268;2023-05-08T06:05:06;97868.53;;;14.73;100.00
5283;BME280;15376;48.540;9.268;2023-05-08T06:07:31;97869.56;;;14.79;100.00
5283;BME280;15376;48.540;9.268;2023-05-08T06:09:57;97868.75;;;14.85;100.00
5283;BME280;15376;48.540;9.268;2023-05-08T06:12:22;97859.09;;;14.84;100.00
5283;BME280;15376;48.540;9.268;2023-05-08T06:14:50;97864.63;;;14.76;100.00
5283;BME280;15376;48.540;9.268;2023-05-08T06:17:15;97862.38;;;14.79;100.00
5283;BME280;15376;48.540;9.268;2023-05-08T06:19:41;97868.16;;;14.89;100.00
5283;BME280;15376;48.540;9.268;2023-05-08T06:22:06;97868.16;;;14.89;100.00
5283;BME280;15376;48.540;9.268;2023-05-08T06:24:32;97868.59;;;14.99;100.00
5283;BME280;15376;48.540;9.268;2023-05-08T06:26:57;97876.81;;;14.91;100.00
5283;BME280;15376;48.540;9.268;2023-05-08T06:29:23;97868.56;;;14.86;100.00
5283;BME280;15376;48.540;9.268;2023-05-08T06:31:48;97869.78;;;14.84;100.00
5283;BME280;15376;48.540;9.268;2023-05-08T06:34:14;97871.44;;;14.78;100.00
5283;BME280;15376;48.540;9.268;2023-05-08T06:36:39;97872.63;;;14.69;100.00
5283;BME280;15376;48.540;9.268;2023-05-08T06:39:05;97865.41;;;14.63;100.00
5283;BME280;15376;48.540;9.268;2023-05-08T06:41:30;97865.22;;;14.71;100.00
5283;BME280;15376;48.540;9.268;2023-05-08T06:43:56;97884.97;;;14.70;100.00
5283;BME280;15376;48.540;9.268;2023-05-08T06:46:21;97864.72;;;14.54;100.00
5283;BME280;15376;48.540;9.268;2023-05-08T06:48:46;97882.06;;;14.65;100.00
5283;BME280;15376;48.540;9.268;2023-05-08T06:51:12;97884.56;;;14.73;100.00
5283;BME280;15376;48.540;9.268;2023-05-08T06:53:37;97881.63;;;14.61;100.00
5283;BME280;15376;48.540;9.268;2023-05-08T06:56:03;97868.06;;;14.63;100.00
5283;BME280;15376;48.540;9.268;2023-05-08T06:58:28;97887.63;;;14.70;100.00
5283;BME280;15376;48.540;9.268;2023-05-08T07:00:55;97887.84;;;14.68;100.00
5283;BME280;15376;48.540;9.268;2023-05-08T07:03:21;97886.53;;;14.58;100.00
5283;BME280;15376;48.540;9.268;2023-05-08T07:05:46;97888.22;;;14.65;100.00
5283;BME280;15376;48.540;9.268;2023-05-08T07:08:11;97890.50;;;14.68;100.00
5283;BME280;15376;48.540;9.268;2023-05-08T07:10:37;97880.81;;;14.61;100.00
5283;BME280;15376;48.540;9.268;2023-05-08T07:13:02;97886.16;;;14.61;100.00
5283;BME280;15376;48.540;9.268;2023-05-08T07:15:30;97889.84;;;14.60;100.00
5283;BME280;15376;48.540;9.268;2023-05-08T07:17:55;97888.19;;;14.59;100.00
5283;BME280;15376;48.540;9.268;2023-05-08T07:20:21;97893.97;;;14.62;100.00
5283;BME280;15376;48.540;9.268;2023-05-08T07:22:48;97886.34;;;14.59;100.00
5283;BME280;15376;48.540;9.268;2023-05-08T07:25:13;97899.94;;;14.64;100.00
5283;BME280;15376;48.540;9.268;2023-05-08T07:27:39;97886.06;;;14.48;100.00
5283;BME280;15376;48.540;9.268;2023-05-08T07:30:04;97908.56;;;14.60;100.00
5283;BME280;15376;48.540;9.268;2023-05-08T07:32:30;97903.75;;;14.49;100.00
5283;BME280;15376;48.540;9.268;2023-05-08T07:34:55;97904.97;;;14.46;100.00
5283;BME280;15376;48.540;9.268;2023-05-08T07:37:21;97907.06;;;14.51;100.00
5283;BME280;15376;48.540;9.268;2023-05-08T07:39:46;97914.66;;;14.47;100.00
5283;BME280;15376;48.540;9.268;2023-05-08T07:42:12;97908.25;;;14.42;100.00
5283;BME280;15376;48.540;9.268;2023-05-08T07:44:38;97920.78;;;14.41;100.00
5283;BME280;15376;48.540;9.268;2023-05-08T07:47:03;97913.59;;;14.42;100.00
5283;BME280;15376;48.540;9.268;2023-05-08T07:49:29;97911.84;;;14.27;100.00
5283;BME280;15376;48.540;9.268;2023-05-08T07:51:54;97926.13;;;14.41;100.00
5283;BME280;15376;48.540;9.268;2023-05-08T07:54:20;97928.34;;;14.38;100.00
5283;BME280;15376;48.540;9.268;2023-05-08T07:56:45;97909.38;;;14.26;100.00
5283;BME280;15376;48.540;9.268;2023-05-08T07:59:10;97927.09;;;14.33;100.00
5283;BME280;15376;48.540;9.268;2023-05-08T08:01:36;97933.06;;;14.35;100.00
5283;BME280;15376;48.540;9.268;2023-05-08T08:04:01;97936.19;;;14.39;100.00
5283;BME280;15376;48.540;9.268;2023-05-08T08:06:26;97928.13;;;14.32;100.00
5283;BME280;15376;48.540;9.268;2023-05-08T08:08:52;97937.63;;;14.42;100.00
5283;BME280;15376;48.540;9.268;2023-05-08T08:11:18;97935.00;;;14.48;100.00
5283;BME280;15376;48.540;9.268;2023-05-08T08:13:43;97922.06;;;14.52;100.00
5283;BME280;15376;48.540;9.268;2023-05-08T08:16:08;97921.69;;;14.55;100.00
5283;BME280;15376;48.540;9.268;2023-05-08T08:18:34;97916.97;;;14.57;100.00
5283;BME280;15376;48.540;9.268;2023-05-08T08:21:03;97927.91;;;14.62;100.00
5283;BME280;15376;48.540;9.268;2023-05-08T08:23:28;97877.06;;;14.21;100.00
5283;BME280;15376;48.540;9.268;2023-05-08T08:25:54;97925.56;;;14.52;100.00
5283;BME280;15376;48.540;9.268;2023-05-08T08:28:19;97937.19;;;14.66;100.00
5283;BME280;15376;48.540;9.268;2023-05-08T08:30:45;97940.91;;;14.72;100.00
5283;BME280;15376;48.540;9.268;2023-05-08T08:33:10;97938.03;;;14.73;100.00
5283;BME280;15376;48.540;9.268;2023-05-08T08:35:35;97930.66;;;14.75;100.00
5283;BME280;15376;48.540;9.268;2023-05-08T08:38:02;97932.31;;;14.83;100.00
5283;BME280;15376;48.540;9.268;2023-05-08T08:40:28;97933.78;;;14.92;100.00
5283;BME280;15376;48.540;9.268;2023-05-08T08:42:54;97933.06;;;15.11;100.00
5283;BME280;15376;48.540;9.268;2023-05-08T08:45:19;97917.22;;;15.16;100.00
5283;BME280;15376;48.540;9.268;2023-05-08T08:47:47;97926.31;;;15.35;100.00
5283;BME280;15376;48.540;9.268;2023-05-08T08:50:13;97929.50;;;15.58;100.00
5283;BME280;15376;48.540;9.268;2023-05-08T08:53:20;97924.97;;;15.59;100.00
5283;BME280;15376;48.540;9.268;2023-05-08T08:55:48;97915.09;;;15.86;100.00
5283;BME280;15376;48.540;9.268;2023-05-08T08:58:40;97919.59;;;16.05;100.00
5283;BME280;15376;48.540;9.268;2023-05-08T09:01:15;97907.03;;;16.19;100.00
5283;BME280;15376;48.540;9.268;2023-05-08T09:03:42;97917.34;;;16.28;100.00
5283;BME280;15376;48.540;9.268;2023-05-08T09:06:07;97910.47;;;16.46;100.00
5283;BME280;15376;48.540;9.268;2023-05-08T09:08:33;97908.63;;;16.46;100.00
5283;BME280;15376;48.540;9.268;2023-05-08T09:11:00;97904.06;;;16.53;100.00
5283;BME280;15376;48.540;9.268;2023-05-08T09:13:27;97895.41;;;16.71;100.00
5283;BME280;15376;48.540;9.268;2023-05-08T09:15:53;97904.81;;;16.80;100.00
5283;BME280;15376;48.540;9.268;2023-05-08T09:18:18;97901.69;;;16.90;100.00
5283;BME280;15376;48.540;9.268;2023-05-08T09:20:44;97901.03;;;17.01;100.00
5283;BME280;15376;48.540;9.268;2023-05-08T09:23:10;97895.47;;;17.03;100.00
5283;BME280;15376;48.540;9.268;2023-05-08T09:25:42;97895.06;;;17.37;100.00
5283;BME280;15376;48.540;9.268;2023-05-08T09:28:21;97899.03;;;17.28;100.00
5283;BME280;15376;48.540;9.268;2023-05-08T09:30:54;97902.44;;;17.48;100.00
5283;BME280;15376;48.540;9.268;2023-05-08T09:33:21;97905.50;;;17.83;100.00
5283;BME280;15376;48.540;9.268;2023-05-08T09:35:47;97892.91;;;17.84;100.00
5283;BME280;15376;48.540;9.268;2023-05-08T09:38:35;97903.53;;;18.22;100.00
5283;BME280;15376;48.540;9.268;2023-05-08T09:41:12;97889.00;;;18.05;100.00
5283;BME280;15376;48.540;9.268;2023-05-08T09:43:42;97901.38;;;18.30;100.00
5283;BME280;15376;48.540;9.268;2023-05-08T09:46:25;97902.13;;;18.56;100.00
5283;BME280;15376;48.540;9.268;2023-05-08T09:48:52;97894.94;;;18.75;100.00
5283;BME280;15376;48.540;9.268;2023-05-08T09:51:18;97894.72;;;18.33;100.00
5283;BME280;15376;48.540;9.268;2023-05-08T09:53:44;97897.81;;;18.55;100.00
5283;BME280;15376;48.540;9.268;2023-05-08T09:56:09;97894.06;;;18.92;100.00
5283;BME280;15376;48.540;9.268;2023-05-08T09:58:44;97886.97;;;18.80;100.00
5283;BME280;15376;48.540;9.268;2023-05-08T10:01:33;97900.72;;;18.90;100.00
5283;BME280;15376;48.540;9.268;2023-05-08T10:03:59;97882.31;;;18.75;100.00
5283;BME280;15376;48.540;9.268;2023-05-08T10:06:25;97898.63;;;19.10;100.00
5283;BME280;15376;48.540;9.268;2023-05-08T10:09:24;97889.66;;;18.80;100.00
5283;BME280;15376;48.540;9.268;2023-05-08T10:11:51;97903.25;;;18.05;100.00
5283;BME280;15376;48.540;9.268;2023-05-08T10:14:17;97895.50;;;17.97;100.00
5283;BME280;15376;48.540;9.268;2023-05-08T10:16:45;97897.75;;;18.18;100.00
5283;BME280;15376;48.540;9.268;2023-05-08T10:19:21;97892.38;;;18.18;100.00
5283;BME280;15376;48.540;9.268;2023-05-08T10:21:49;97891.72;;;18.41;100.00
5283;BME280;15376;48.540;9.268;2023-05-08T10:24:26;97888.88;;;18.79;100.00
5283;BME280;15376;48.540;9.268;2023-05-08T10:27:19;97888.69;;;18.56;100.00
5283;BME280;15376;48.540;9.268;2023-05-08T10:29:53;97890.34;;;18.39;100.00
5283;BME280;15376;48.540;9.268;2023-05-08T10:32:20;97894.03;;;18.19;100.00
5283;BME280;15376;48.540;9.268;2023-05-08T10:34:48;97895.56;;;18.33;100.00
5283;BME280;15376;48.540;9.268;2023-05-08T10:37:16;97893.84;;;17.96;100.00
5283;BME280;15376;48.540;9.268;2023-05-08T10:39:43;97900.34;;;18.31;100.00
5283;BME280;15376;48.540;9.268;2023-05-08T10:42:11;97885.78;;;18.39;100.00
5283;BME280;15376;48.540;9.268;2023-05-08T10:44:37;97893.59;;;18.22;100.00
5283;BME280;15376;48.540;9.268;2023-05-08T10:47:43;97889.84;;;18.23;100.00
5283;BME280;15376;48.540;9.268;2023-05-08T10:53:21;97876.34;;;17.87;100.00
5283;BME280;15376;48.540;9.268;2023-05-08T10:55:50;97902.16;;;17.88;100.00
5283;BME280;15376;48.540;9.268;2023-05-08T11:03:37;97890.03;;;18.04;100.00
5283;BME280;15376;48.540;9.268;2023-05-08T11:06:03;97882.91;;;17.66;100.00
5283;BME280;15376;48.540;9.268;2023-05-08T11:08:29;97893.44;;;17.67;100.00
5283;BME280;15376;48.540;9.268;2023-05-08T11:13:49;97890.63;;;18.30;100.00
5283;BME280;15376;48.540;9.268;2023-05-08T11:16:16;97885.25;;;18.30;100.00
5283;BME280;15376;48.540;9.268;2023-05-08T11:19:15;97879.56;;;18.39;100.00
5283;BME280;15376;48.540;9.268;2023-05-08T11:24:35;97887.44;;;17.97;100.00
5283;BME280;15376;48.540;9.268;2023-05-08T11:27:01;97880.94;;;17.80;100.00
5283;BME280;15376;48.540;9.268;2023-05-08T11:29:26;97883.72;;;17.66;100.00
5283;BME280;15376;48.540;9.268;2023-05-08T11:31:52;97871.63;;;17.82;100.00
5283;BME280;15376;48.540;9.268;2023-05-08T11:37:29;97870.47;;;17.40;100.00
5283;BME280;15376;48.540;9.268;2023-05-08T11:43:18;97880.78;;;17.43;100.00
5283;BME280;15376;48.540;9.268;2023-05-08T11:45:44;97880.75;;;17.12;100.00
5283;BME280;15376;48.540;9.268;2023-05-08T11:48:13;97883.16;;;17.20;100.00
5283;BME280;15376;48.540;9.268;2023-05-08T11:50:40;97880.59;;;17.00;100.00
5283;BME280;15376;48.540;9.268;2023-05-08T11:53:05;97874.97;;;16.63;100.00
5283;BME280;15376;48.540;9.268;2023-05-08T11:55:31;97882.31;;;16.88;100.00
5283;BME280;15376;48.540;9.268;2023-05-08T11:57:57;97873.69;;;16.79;100.00
5283;BME280;15376;48.540;9.268;2023-05-08T12:00:22;97889.91;;;16.97;100.00
5283;BME280;15376;48.540;9.268;2023-05-08T12:02:47;97877.94;;;16.93;100.00
5283;BME280;15376;48.540;9.268;2023-05-08T12:05:13;97888.72;;;16.80;100.00
5283;BME280;15376;48.540;9.268;2023-05-08T12:07:42;97878.91;;;16.67;100.00
5283;BME280;15376;48.540;9.268;2023-05-08T12:10:08;97883.03;;;16.70;100.00
5283;BME280;15376;48.540;9.268;2023-05-08T12:12:38;97891.41;;;16.87;100.00
5283;BME280;15376;48.540;9.268;2023-05-08T12:15:11;97898.06;;;16.78;100.00
5283;BME280;15376;48.540;9.268;2023-05-08T12:17:37;97889.53;;;16.87;100.00
5283;BME280;15376;48.540;9.268;2023-05-08T12:20:12;97891.13;;;17.02;100.00
5283;BME280;15376;48.540;9.268;2023-05-08T12:22:43;97890.88;;;17.10;100.00
5283;BME280;15376;48.540;9.268;2023-05-08T12:25:15;97896.38;;;17.21;100.00
5283;BME280;15376;48.540;9.268;2023-05-08T12:27:42;97890.47;;;17.44;100.00
5283;BME280;15376;48.540;9.268;2023-05-08T12:30:09;97883.19;;;17.51;100.00
5283;BME280;15376;48.540;9.268;2023-05-08T12:32:39;97885.63;;;17.91;100.00
5283;BME280;15376;48.540;9.268;2023-05-08T12:35:06;97888.53;;;18.08;100.00
5283;BME280;15376;48.540;9.268;2023-05-08T12:37:32;97888.94;;;18.11;100.00
5283;BME280;15376;48.540;9.268;2023-05-08T12:39:58;97880.63;;;17.94;100.00
5283;BME280;15376;48.540;9.268;2023-05-08T12:42:49;97892.72;;;17.79;100.00
5283;BME280;15376;48.540;9.268;2023-05-08T12:45:16;97889.50;;;17.63;100.00
5283;BME280;15376;48.540;9.268;2023-05-08T12:47:50;97892.38;;;18.18;100.00
5283;BME280;15376;48.540;9.268;2023-05-08T12:50:17;97888.53;;;18.51;100.00
5283;BME280;15376;48.540;9.268;2023-05-08T12:52:43;97892.88;;;18.33;100.00
5283;BME280;15376;48.540;9.268;2023-05-08T12:55:28;97885.03;;;18.32;100.00
5283;BME280;15376;48.540;9.268;2023-05-08T12:58:04;97887.94;;;18.49;100.00
5283;BME280;15376;48.540;9.268;2023-05-08T13:00:40;97888.53;;;18.32;100.00
5283;BME280;15376;48.540;9.268;2023-05-08T13:03:07;97885.75;;;18.21;100.00
5283;BME280;15376;48.540;9.268;2023-05-08T13:05:34;97884.41;;;17.87;100.00
5283;BME280;15376;48.540;9.268;2023-05-08T13:08:05;97896.56;;;18.14;100.00
5283;BME280;15376;48.540;9.268;2023-05-08T13:10:52;97893.88;;;18.14;100.00
5283;BME280;15376;48.540;9.268;2023-05-08T13:13:19;97886.06;;;18.06;100.00
5283;BME280;15376;48.540;9.268;2023-05-08T13:15:45;97868.00;;;17.70;100.00
5283;BME280;15376;48.540;9.268;2023-05-08T13:18:11;97881.31;;;17.58;100.00
5283;BME280;15376;48.540;9.268;2023-05-08T13:20:37;97866.75;;;17.41;100.00
5283;BME280;15376;48.540;9.268;2023-05-08T13:23:03;97890.75;;;17.29;100.00
5283;BME280;15376;48.540;9.268;2023-05-08T13:25:30;97878.16;;;17.30;100.00
5283;BME280;15376;48.540;9.268;2023-05-08T13:27:56;97868.63;;;17.03;100.00
5283;BME280;15376;48.540;9.268;2023-05-08T13:30:21;97879.81;;;17.31;100.00
5283;BME280;15376;48.540;9.268;2023-05-08T13:32:48;97874.00;;;17.97;100.00
5283;BME280;15376;48.540;9.268;2023-05-08T13:35:13;97866.47;;;18.42;100.00
5283;BME280;15376;48.540;9.268;2023-05-08T13:37:39;97856.94;;;18.83;100.00
5283;BME280;15376;48.540;9.268;2023-05-08T13:40:04;97861.59;;;18.76;100.00
5283;BME280;15376;48.540;9.268;2023-05-08T13:42:30;97866.84;;;18.71;100.00
5283;BME280;15376;48.540;9.268;2023-05-08T13:44:55;97860.13;;;18.91;100.00
5283;BME280;15376;48.540;9.268;2023-05-08T13:47:21;97858.31;;;19.04;100.00
5283;BME280;15376;48.540;9.268;2023-05-08T13:49:46;97852.22;;;19.80;100.00
5283;BME280;15376;48.540;9.268;2023-05-08T13:52:12;97845.63;;;20.69;100.00
5283;BME280;15376;48.540;9.268;2023-05-08T13:54:38;97845.47;;;21.16;100.00
5283;BME280;15376;48.540;9.268;2023-05-08T13:57:03;97840.16;;;21.83;100.00
5283;BME280;15376;48.540;9.268;2023-05-08T13:59:29;97843.03;;;22.26;100.00
5283;BME280;15376;48.540;9.268;2023-05-08T14:01:55;97840.63;;;22.30;100.00